Airport Name : Peace River

Other Name : Peace River

ICAO : CYPE

IATA : YPE

FAA :

Latitude : 56.226944

Longitude : -117.447222

Country : Canada

Local Date and Time : 03 Dec 2020 19:14

 

TAF (Terminal Aerodrome Forecast)

TAF CYPE 040038Z 0401/0413 24008KT P6SM FEW120 BKN210 FM040600 23006KT P6SM OVC100 TEMPO 0406/0409 P6SM VCSH SCT040 OVC080 FM040900 20006KT P6SM FEW040 BKN100 FM041200 22012G22KT P6SM FEW100 RMK NXT FCST BY 040700Z

 

METAR (METeorological Aerodrome Report)

CYPE 040200Z 26006KT 15SM FEW230 M02/M07 A2997 RMK CI2 SLP186

CYPE 040100Z 26008KT 15SM SCT230 M01/M06 A2998 RMK CI3 SLP188

CYPE 040000Z 24009KT 15SM SCT230 M00/M05 A2997 RMK CI3 SLP184

CYPE 032300Z 25007KT 15SM FEW120 BKN210 00/M05 A2997 RMK AC2CI4 SLP185

To Charter a Jet Click here.